createdAt,value
2022-07-25T16:38:38.690Z,41.10
2022-07-25T16:43:40.980Z,40.49
2022-07-25T16:48:43.233Z,40.03
2022-07-25T17:05:54.160Z,40.19
2022-07-25T17:10:55.517Z,40.13
2022-07-25T17:15:57.070Z,39.73
2022-07-25T17:20:59.479Z,39.33
2022-07-25T17:26:01.043Z,39.09
2022-07-25T17:31:02.591Z,38.83
2022-07-25T17:36:04.697Z,38.37
2022-07-25T17:41:06.376Z,38.02
2022-07-25T17:46:10.537Z,37.65
2022-07-25T17:51:11.798Z,37.29
2022-07-25T17:56:13.064Z,36.75
2022-07-25T18:01:14.574Z,35.88
2022-07-25T18:06:16.576Z,35.05
2022-07-25T18:11:19.372Z,34.42
2022-07-25T18:16:20.875Z,33.48
2022-07-25T18:21:23.153Z,32.00
2022-07-25T18:26:25.554Z,30.47
2022-07-25T18:31:26.973Z,29.27
2022-07-25T18:36:29.177Z,28.21
2022-07-25T18:41:32.078Z,27.43
2022-07-25T18:46:33.791Z,26.72
2022-07-25T18:51:35.211Z,26.15
2022-07-25T18:56:36.789Z,25.66
2022-07-25T19:01:38.207Z,25.21
2022-07-25T19:06:39.749Z,24.79
2022-07-25T19:11:42.399Z,24.44
2022-07-25T19:16:44.353Z,24.15
2022-07-25T19:21:45.760Z,23.88
2022-07-25T19:26:48.763Z,23.64
2022-07-25T19:31:57.809Z,23.39
2022-07-25T19:37:00.607Z,23.14
2022-07-25T19:42:07.093Z,22.92
2022-07-25T19:47:11.831Z,22.71
2022-07-25T19:52:14.225Z,22.56
2022-07-25T19:57:15.627Z,22.43
2022-07-25T20:02:16.867Z,22.30
2022-07-25T20:07:18.405Z,22.21
2022-07-25T20:12:25.831Z,22.19
2022-07-25T20:17:27.299Z,22.13
2022-07-25T20:22:28.875Z,22.07
2022-07-25T20:27:30.340Z,21.96
2022-07-25T20:37:51.806Z,21.72
2022-07-25T20:42:55.038Z,21.60
2022-07-25T20:47:56.894Z,21.47
2022-07-25T20:53:01.540Z,21.40
2022-07-25T20:58:04.334Z,21.36
2022-07-25T21:03:13.486Z,21.30
2022-07-25T21:08:15.394Z,21.29
2022-07-25T21:13:18.467Z,21.28
2022-07-25T21:18:20.142Z,21.21
2022-07-25T21:23:25.908Z,21.12
2022-07-25T21:28:27.384Z,21.03
2022-07-25T21:33:29.050Z,20.93
2022-07-25T21:38:34.998Z,20.87
2022-07-25T21:43:36.700Z,20.82
2022-07-25T21:49:00.130Z,20.75
2022-07-25T21:54:01.482Z,20.67
2022-07-25T21:59:02.905Z,20.58
2022-07-25T22:04:04.688Z,20.49
2022-07-25T22:09:06.576Z,20.39
2022-07-25T22:14:08.741Z,20.27
2022-07-25T22:19:10.488Z,20.16
2022-07-25T22:24:12.076Z,20.10
2022-07-25T22:29:13.562Z,20.11
2022-07-25T22:34:15.017Z,20.10
2022-07-25T22:39:16.596Z,20.08
2022-07-25T22:44:18.070Z,20.06
2022-07-25T22:49:22.852Z,20.01
2022-07-25T22:54:24.453Z,19.95
2022-07-25T22:59:26.081Z,19.87
2022-07-25T23:04:28.100Z,19.80
2022-07-25T23:09:36.322Z,19.74
2022-07-25T23:14:38.442Z,19.68
2022-07-25T23:19:40.114Z,19.62
2022-07-25T23:24:41.690Z,19.53
2022-07-25T23:29:43.182Z,19.43
2022-07-25T23:34:50.544Z,19.34
2022-07-25T23:39:51.811Z,19.26
2022-07-25T23:44:53.292Z,19.04
2022-07-25T23:49:56.604Z,18.84
2022-07-25T23:54:58.068Z,18.68
2022-07-25T23:59:59.407Z,18.55
